createdAt,value
2019-06-20T00:00:33.141Z,13.08
2019-06-20T00:03:09.137Z,13.68
2019-06-20T00:05:50.123Z,13.95
2019-06-20T00:08:24.495Z,12.85
2019-06-20T00:17:05.929Z,13.60
2019-06-20T00:22:54.105Z,13.62
2019-06-20T00:28:04.991Z,12.80
2019-06-20T00:30:43.134Z,12.40
2019-06-20T00:33:20.896Z,13.50
2019-06-20T00:35:54.381Z,11.68
2019-06-20T00:38:34.410Z,13.10
2019-06-20T00:41:07.602Z,12.60
2019-06-20T00:43:41.525Z,12.28
2019-06-20T00:46:14.391Z,12.88
2019-06-20T00:48:47.662Z,12.58
2019-06-20T00:51:24.249Z,12.90
2019-06-20T01:00:14.534Z,12.45
2019-06-20T01:02:52.443Z,11.25
2019-06-20T01:05:29.233Z,10.93
2019-06-20T01:10:39.939Z,10.40
2019-06-20T01:13:13.414Z,10.10
2019-06-20T01:15:46.835Z,11.40
2019-06-20T01:18:23.560Z,10.35
2019-06-20T01:33:19.670Z,10.50
2019-06-20T01:45:19.926Z,15.03
2019-06-20T01:48:10.029Z,14.15
2019-06-20T01:50:44.615Z,16.05
2019-06-20T01:53:21.904Z,16.45
2019-06-20T02:02:05.079Z,12.43
2019-06-20T02:10:53.394Z,12.18
2019-06-20T02:13:26.398Z,10.78
2019-06-20T02:16:02.383Z,9.83
2019-06-20T02:18:40.383Z,11.10
2019-06-20T02:21:13.680Z,11.20
2019-06-20T02:23:51.810Z,10.38
2019-06-20T02:26:30.695Z,10.32
2019-06-20T02:29:04.560Z,10.53
2019-06-20T02:31:47.834Z,10.45
2019-06-20T02:34:20.874Z,10.20
2019-06-20T02:36:57.217Z,10.00
2019-06-20T02:39:31.797Z,10.00
2019-06-20T02:42:09.003Z,9.75
2019-06-20T02:44:44.983Z,9.10
2019-06-20T02:47:22.884Z,9.55
2019-06-20T03:05:41.729Z,9.68
2019-06-20T03:08:31.043Z,8.88
2019-06-20T03:11:11.985Z,9.30
2019-06-20T03:13:49.883Z,8.68
2019-06-20T03:16:25.544Z,9.15
2019-06-20T03:18:58.637Z,8.95
2019-06-20T03:21:31.578Z,8.23
2019-06-20T03:24:05.552Z,9.25
2019-06-20T03:26:38.966Z,9.13
2019-06-20T03:29:12.326Z,8.90
2019-06-20T03:31:44.996Z,8.78
2019-06-20T03:34:17.757Z,8.05
2019-06-20T03:36:50.550Z,7.97
2019-06-20T03:39:23.354Z,7.53
2019-06-20T03:41:55.868Z,8.05
2019-06-20T03:44:28.679Z,7.40
2019-06-20T03:47:01.378Z,7.50
2019-06-20T03:49:34.150Z,6.95
2019-06-20T03:52:06.742Z,6.42
2019-06-20T03:54:39.496Z,6.92
2019-06-20T03:57:12.197Z,6.53
2019-06-20T03:59:44.930Z,6.47
2019-06-20T04:02:18.838Z,6.28
2019-06-20T04:04:51.710Z,7.67
2019-06-20T04:07:25.824Z,6.97
2019-06-20T04:09:58.871Z,6.87
2019-06-20T04:12:33.758Z,8.83
2019-06-20T04:15:18.686Z,7.10
2019-06-20T04:17:41.901Z,7.47
2019-06-20T04:20:14.789Z,7.33
2019-06-20T04:22:47.760Z,7.40
2019-06-20T04:25:20.444Z,7.15
2019-06-20T04:27:53.037Z,7.17
2019-06-20T04:30:25.960Z,6.30
2019-06-20T04:32:58.752Z,6.60
2019-06-20T04:35:32.551Z,7.10
2019-06-20T04:38:05.173Z,6.87
2019-06-20T04:40:40.190Z,7.15
2019-06-20T04:43:13.464Z,8.68
2019-06-20T04:45:48.135Z,8.00
2019-06-20T04:48:21.179Z,6.30
2019-06-20T04:50:55.675Z,6.35
2019-06-20T04:53:28.407Z,6.42
2019-06-20T04:56:01.184Z,6.47
2019-06-20T04:58:35.598Z,6.37
2019-06-20T05:01:11.144Z,6.28
2019-06-20T05:03:43.944Z,6.35
2019-06-20T05:06:18.223Z,6.25
2019-06-20T05:08:50.945Z,6.45
2019-06-20T05:11:23.683Z,6.65
2019-06-20T05:13:56.665Z,7.17
2019-06-20T05:16:29.625Z,6.70
2019-06-20T05:19:03.016Z,6.42
2019-06-20T05:21:36.071Z,5.87
2019-06-20T05:24:08.888Z,6.62
2019-06-20T05:26:41.683Z,6.17
2019-06-20T05:29:15.014Z,6.40
2019-06-20T05:32:03.936Z,7.35
2019-06-20T05:34:44.168Z,5.22
2019-06-20T05:37:35.274Z,5.83
2019-06-20T05:40:18.471Z,5.20
2019-06-20T05:42:58.207Z,5.20
2019-06-20T05:45:44.008Z,5.55
2019-06-20T05:48:29.723Z,4.55
2019-06-20T05:51:06.238Z,4.72
2019-06-20T05:53:42.205Z,4.53
2019-06-20T05:58:47.168Z,4.50
2019-06-20T06:01:24.509Z,4.03
2019-06-20T06:04:01.014Z,4.35
2019-06-20T06:06:35.949Z,4.30
2019-06-20T06:09:09.693Z,4.00
2019-06-20T06:11:46.412Z,4.28
2019-06-20T06:14:19.759Z,4.17
2019-06-20T06:16:52.541Z,3.58
2019-06-20T06:19:25.523Z,3.50
2019-06-20T06:21:58.307Z,3.50
2019-06-20T06:24:31.164Z,3.58
2019-06-20T06:27:04.094Z,3.30
2019-06-20T06:29:40.244Z,3.60
2019-06-20T06:32:20.848Z,3.80
2019-06-20T06:35:02.426Z,4.22
2019-06-20T06:37:35.685Z,6.78
2019-06-20T06:40:10.866Z,4.20
2019-06-20T06:42:43.649Z,3.40
2019-06-20T06:45:16.796Z,3.10
2019-06-20T06:47:49.868Z,4.25
2019-06-20T06:50:24.188Z,3.72
2019-06-20T06:52:57.764Z,3.23
2019-06-20T06:55:33.397Z,3.35
2019-06-20T06:58:09.143Z,3.50
2019-06-20T07:00:41.957Z,3.37
2019-06-20T07:03:14.694Z,3.87
2019-06-20T07:05:47.883Z,3.70
2019-06-20T07:08:21.340Z,4.17
2019-06-20T07:10:54.018Z,4.58
2019-06-20T07:13:27.006Z,3.50
2019-06-20T07:15:59.823Z,3.60
2019-06-20T07:18:32.646Z,3.22
2019-06-20T07:21:06.671Z,3.12
2019-06-20T07:23:40.088Z,3.50
2019-06-20T07:26:12.696Z,3.95
2019-06-20T07:28:45.640Z,3.40
2019-06-20T07:31:19.015Z,4.00
2019-06-20T07:33:53.565Z,3.67
2019-06-20T07:36:26.166Z,4.47
2019-06-20T07:38:59.003Z,4.03
2019-06-20T07:41:31.995Z,3.58
2019-06-20T07:44:06.619Z,3.65
2019-06-20T07:46:39.246Z,4.00
2019-06-20T07:49:12.158Z,3.40
2019-06-20T07:51:44.874Z,3.60
2019-06-20T07:54:18.162Z,4.17
2019-06-20T07:56:51.148Z,3.55
2019-06-20T07:59:23.907Z,3.65
2019-06-20T08:01:56.870Z,3.50
2019-06-20T08:04:29.593Z,3.17
2019-06-20T08:07:02.350Z,3.80
2019-06-20T08:09:44.743Z,4.00
2019-06-20T08:12:09.738Z,2.95
2019-06-20T08:14:45.447Z,3.37
2019-06-20T08:17:34.373Z,5.90
2019-06-20T08:19:52.956Z,4.70
2019-06-20T08:22:25.750Z,3.90
2019-06-20T08:24:59.027Z,3.30
2019-06-20T08:27:50.071Z,3.80
2019-06-20T08:30:31.148Z,4.25
2019-06-20T08:33:11.461Z,4.33
2019-06-20T08:35:40.833Z,4.55
2019-06-20T08:38:15.619Z,3.83
2019-06-20T08:40:48.711Z,4.10
2019-06-20T08:43:21.596Z,4.08
2019-06-20T08:45:57.909Z,4.37
2019-06-20T08:48:30.740Z,4.28
2019-06-20T08:51:04.535Z,3.98
2019-06-20T08:53:38.041Z,4.05
2019-06-20T08:56:10.917Z,4.35
2019-06-20T08:58:43.497Z,4.15
2019-06-20T09:01:18.886Z,4.42
2019-06-20T09:03:51.931Z,4.50
2019-06-20T09:06:24.863Z,4.90
2019-06-20T09:08:58.291Z,4.30
2019-06-20T09:11:31.376Z,4.60
2019-06-20T09:14:04.571Z,4.25
2019-06-20T09:16:37.282Z,5.17
2019-06-20T09:19:10.249Z,5.65
2019-06-20T09:21:43.180Z,4.60
2019-06-20T09:24:15.922Z,4.40
2019-06-20T09:26:48.635Z,4.70
2019-06-20T09:29:21.847Z,4.90
2019-06-20T09:31:55.444Z,5.10
2019-06-20T09:34:29.513Z,4.80
2019-06-20T09:37:04.018Z,4.90
2019-06-20T09:39:36.865Z,4.58
2019-06-20T09:42:09.506Z,4.80
2019-06-20T09:44:42.748Z,4.90
2019-06-20T09:47:15.418Z,4.40
2019-06-20T09:49:50.626Z,6.10
2019-06-20T09:52:23.137Z,4.50
2019-06-20T09:54:56.133Z,4.47
2019-06-20T09:57:28.890Z,5.28
2019-06-20T10:00:09.568Z,4.80
2019-06-20T10:02:37.434Z,5.75
2019-06-20T10:05:10.830Z,5.30
2019-06-20T10:07:45.550Z,4.53
2019-06-20T10:10:23.392Z,5.50
2019-06-20T10:12:58.744Z,5.60
2019-06-20T10:15:33.468Z,5.10
2019-06-20T10:18:07.970Z,5.47
2019-06-20T10:20:42.588Z,4.80
2019-06-20T10:23:15.312Z,5.47
2019-06-20T10:25:49.214Z,4.62
2019-06-20T10:28:22.030Z,5.83
2019-06-20T10:30:55.603Z,5.03
2019-06-20T10:33:29.234Z,4.90
2019-06-20T10:36:02.703Z,5.00
2019-06-20T10:38:39.084Z,5.12
2019-06-20T10:41:17.026Z,4.70
2019-06-20T10:43:49.882Z,4.47
2019-06-20T10:46:22.847Z,5.42
2019-06-20T10:48:55.831Z,4.78
2019-06-20T10:51:33.181Z,5.58
2019-06-20T10:54:06.098Z,5.35
2019-06-20T10:56:40.452Z,5.62
2019-06-20T10:59:13.150Z,5.55
2019-06-20T11:01:46.644Z,5.00
2019-06-20T11:04:21.204Z,5.90
2019-06-20T11:06:54.072Z,5.00
2019-06-20T11:09:26.947Z,4.80
2019-06-20T11:12:02.358Z,5.40
2019-06-20T11:14:38.682Z,4.97
2019-06-20T11:17:13.693Z,6.13
2019-06-20T11:19:47.981Z,5.67
2019-06-20T11:22:21.974Z,5.35
2019-06-20T11:24:54.552Z,5.22
2019-06-20T11:27:27.561Z,6.10
2019-06-20T11:30:00.304Z,5.95
2019-06-20T11:32:33.047Z,5.45
2019-06-20T11:35:07.388Z,5.40
2019-06-20T11:37:40.154Z,5.53
2019-06-20T11:40:13.704Z,4.95
2019-06-20T11:42:47.805Z,5.37
2019-06-20T11:45:20.596Z,6.47
2019-06-20T11:47:53.839Z,5.58
2019-06-20T11:50:28.198Z,5.85
2019-06-20T11:53:00.822Z,5.05
2019-06-20T11:55:34.993Z,5.62
2019-06-20T11:58:08.213Z,5.30
2019-06-20T12:00:40.943Z,5.78
2019-06-20T12:03:13.656Z,5.33
2019-06-20T12:05:47.256Z,5.50
2019-06-20T12:08:21.015Z,5.62
2019-06-20T12:10:54.056Z,8.10
2019-06-20T12:13:26.840Z,5.92
2019-06-20T12:16:00.403Z,5.60
2019-06-20T12:18:33.570Z,5.87
2019-06-20T12:21:09.285Z,5.50
2019-06-20T12:23:42.521Z,8.55
2019-06-20T12:26:16.222Z,8.73
2019-06-20T12:28:48.875Z,6.22
2019-06-20T12:31:23.159Z,6.70
2019-06-20T12:33:56.014Z,5.95
2019-06-20T12:36:29.676Z,5.60
2019-06-20T12:39:03.803Z,5.78
2019-06-20T12:41:38.716Z,5.58
2019-06-20T12:44:12.394Z,5.90
2019-06-20T12:46:50.603Z,5.83
2019-06-20T12:49:24.869Z,5.60
2019-06-20T12:51:58.293Z,5.37
2019-06-20T12:54:31.487Z,5.37
2019-06-20T12:57:04.513Z,5.92
2019-06-20T12:59:39.139Z,5.53
2019-06-20T13:02:12.465Z,5.55
2019-06-20T13:04:48.431Z,5.62
2019-06-20T13:07:21.969Z,5.50
2019-06-20T13:09:54.800Z,5.90
2019-06-20T13:12:33.901Z,6.87
2019-06-20T13:15:07.713Z,6.25
2019-06-20T13:17:41.998Z,5.90
2019-06-20T13:20:19.264Z,5.58
2019-06-20T13:22:53.738Z,5.30
2019-06-20T13:25:26.344Z,4.95
2019-06-20T13:28:01.169Z,5.72
2019-06-20T13:30:35.667Z,7.20
2019-06-20T13:33:09.683Z,6.00
2019-06-20T13:35:45.426Z,5.60
2019-06-20T13:38:18.183Z,5.80
2019-06-20T13:40:50.905Z,6.33
2019-06-20T13:43:23.690Z,6.03
2019-06-20T13:45:56.354Z,5.45
2019-06-20T13:48:29.216Z,11.00
2019-06-20T13:51:02.184Z,5.78
2019-06-20T13:53:36.556Z,5.00
2019-06-20T13:56:11.894Z,5.50
2019-06-20T13:58:45.064Z,6.25
2019-06-20T14:01:17.880Z,6.60
2019-06-20T14:03:50.927Z,5.90
2019-06-20T14:06:23.751Z,6.17
2019-06-20T14:08:56.854Z,5.62
2019-06-20T14:11:29.806Z,6.42
2019-06-20T14:14:03.865Z,5.70
2019-06-20T14:16:37.807Z,6.30
2019-06-20T14:19:10.589Z,6.42
2019-06-20T14:21:43.780Z,6.03
2019-06-20T14:24:16.536Z,5.87
2019-06-20T14:26:50.611Z,6.30
2019-06-20T14:29:23.804Z,8.40
2019-06-20T14:31:57.522Z,7.00
2019-06-20T14:34:30.401Z,6.12
2019-06-20T14:37:03.160Z,5.53
2019-06-20T14:39:35.978Z,6.08
2019-06-20T14:42:09.123Z,5.40
2019-06-20T14:44:44.075Z,5.67
2019-06-20T14:47:16.158Z,5.95
2019-06-20T14:49:51.358Z,5.53
2019-06-20T14:52:24.304Z,6.40
2019-06-20T14:54:57.389Z,6.15
2019-06-20T14:57:34.798Z,6.15
2019-06-20T15:00:16.760Z,7.45
2019-06-20T15:02:54.446Z,6.15
2019-06-20T15:05:26.079Z,5.95
2019-06-20T15:08:08.433Z,7.45
2019-06-20T15:10:41.942Z,6.10
2019-06-20T15:13:15.029Z,6.50
2019-06-20T15:15:49.430Z,6.40
2019-06-20T15:18:22.382Z,8.85
2019-06-20T15:20:59.007Z,6.75
2019-06-20T15:23:32.015Z,5.78
2019-06-20T15:26:04.818Z,8.78
2019-06-20T15:28:38.118Z,7.10
2019-06-20T15:31:10.833Z,5.65
2019-06-20T15:33:49.279Z,5.87
2019-06-20T15:36:28.646Z,9.50
2019-06-20T15:39:04.573Z,7.55
2019-06-20T15:41:41.587Z,6.33
2019-06-20T15:44:19.361Z,6.58
2019-06-20T15:46:53.928Z,7.55
2019-06-20T15:49:26.639Z,6.75
2019-06-20T15:51:59.636Z,7.80
2019-06-20T15:54:32.680Z,6.55
2019-06-20T15:57:06.286Z,7.20
2019-06-20T15:59:42.108Z,10.60
2019-06-20T16:02:15.234Z,13.75
2019-06-20T16:04:48.874Z,8.23
2019-06-20T16:07:24.572Z,8.70
2019-06-20T16:10:13.540Z,7.65
2019-06-20T16:12:46.408Z,7.25
2019-06-20T16:15:25.387Z,5.60
2019-06-20T16:18:23.073Z,6.20
2019-06-20T16:21:00.364Z,6.78
2019-06-20T16:23:53.073Z,6.33
2019-06-20T16:36:13.270Z,5.25
2019-06-20T16:42:17.621Z,6.25
2019-06-20T16:45:06.066Z,6.03
2019-06-20T16:47:39.582Z,5.97
2019-06-20T16:50:46.303Z,5.90
2019-06-20T16:57:19.503Z,6.35
2019-06-20T17:00:12.251Z,6.47
2019-06-20T17:06:20.054Z,6.40
2019-06-20T17:08:54.522Z,6.83
2019-06-20T17:11:27.208Z,7.15
2019-06-20T17:14:00.190Z,6.80
2019-06-20T17:16:39.018Z,7.28
2019-06-20T17:19:15.155Z,6.25
2019-06-20T17:21:51.532Z,8.13
2019-06-20T17:24:30.676Z,6.80
2019-06-20T17:27:05.705Z,7.00
2019-06-20T17:29:38.789Z,7.85
2019-06-20T17:32:14.825Z,6.05
2019-06-20T17:34:47.619Z,6.55
2019-06-20T17:37:58.312Z,6.22
2019-06-20T17:44:07.917Z,7.78
2019-06-20T17:46:42.842Z,9.65
2019-06-20T17:49:15.909Z,6.67
2019-06-20T17:51:49.628Z,7.50
2019-06-20T17:54:26.487Z,6.45
2019-06-20T18:34:34.363Z,8.45
2019-06-20T18:51:42.595Z,11.08
2019-06-20T18:54:33.658Z,8.55
2019-06-20T19:03:31.966Z,7.47
2019-06-20T19:06:08.604Z,8.98
2019-06-20T19:11:39.730Z,8.68
2019-06-20T19:14:14.492Z,8.03
2019-06-20T19:16:48.897Z,9.88
2019-06-20T19:19:22.307Z,9.83
2019-06-20T19:22:00.183Z,8.18
2019-06-20T19:28:16.695Z,8.43
2019-06-20T19:30:54.221Z,8.25
2019-06-20T19:33:28.105Z,8.40
2019-06-20T20:13:47.032Z,9.55
2019-06-20T20:16:25.564Z,9.70
2019-06-20T21:45:18.470Z,9.60
2019-06-20T21:47:51.814Z,9.30
2019-06-20T22:02:35.487Z,9.65
2019-06-20T22:05:13.654Z,10.30
2019-06-20T22:17:55.213Z,9.68
2019-06-20T22:20:32.217Z,10.85
2019-06-20T22:23:05.585Z,10.20
2019-06-20T22:25:38.526Z,10.38
2019-06-20T22:28:12.789Z,10.25
2019-06-20T22:30:48.973Z,10.60
2019-06-20T22:46:00.556Z,11.20
2019-06-20T22:48:38.187Z,11.80
2019-06-20T22:51:13.860Z,11.18
2019-06-20T22:57:13.237Z,11.85
2019-06-20T22:59:46.804Z,11.13
2019-06-20T23:02:19.918Z,11.65
2019-06-20T23:04:52.903Z,10.53
2019-06-20T23:19:54.163Z,14.65
2019-06-20T23:25:31.784Z,19.25
2019-06-20T23:34:11.935Z,16.87
2019-06-20T23:36:47.907Z,17.17
2019-06-20T23:39:20.750Z,15.08
2019-06-20T23:51:05.178Z,14.20
2019-06-20T23:53:38.084Z,15.15
2019-06-20T23:56:15.374Z,15.28
2019-06-20T23:58:48.925Z,15.38
